Time;durP1;ratioP1;P1;durP2;ratioP2;P2;SDS_P1;SDS_P2;PMS_P1;PMS_P2;Temp;Humidity;BMP_temperature;BMP_pressure;BME280_temperature;BME280_humidity;BME280_pressure;Samples;Min_cycle;Max_cycle;Signal;HPM_P1;HPM_P2
2021/05/27 00:27:22;;;;;;;;;;;;;;;;;;5155320;27;20606;-68
2021/05/27 00:29:48;;;;;;;7.72;3.75;;;;;;;;;;5160115;27;20087;-70
2021/05/27 00:32:14;;;;;;;8.02;3.50;;;;;;;;;;5159468;27;20131;-70
2021/05/27 00:34:40;;;;;;;7.43;3.92;;;;;;;;;;5160146;27;20520;-70
2021/05/27 00:37:06;;;;;;;7.80;4.10;;;;;;;;;;5159914;27;20074;-70
2021/05/27 00:39:32;;;;;;;10.95;3.90;;;;;;;;;;5159756;27;20539;-69
2021/05/27 00:41:58;;;;;;;13.52;5.05;;;;;;;;;;5158180;27;20067;-69
2021/05/27 00:44:27;;;;;;;6.90;4.22;;;;;;;;;;5159610;27;20094;-69
2021/05/27 00:46:54;;;;;;;7.72;3.72;;;;;;;;;;5159774;27;20333;-70
2021/05/27 00:49:20;;;;;;;12.80;3.92;;;;;;;;;;5159872;27;20094;-70
2021/05/27 00:51:46;;;;;;;11.10;3.80;;;;;;;;;;5157883;27;20102;-70
2021/05/27 00:54:13;;;;;;;14.10;4.47;;;;;;;;;;5158208;27;20097;-69
2021/05/27 00:56:39;;;;;;;9.60;4.82;;;;;;;;;;5159754;27;20429;-69
2021/05/27 00:59:05;;;;;;;5.87;3.40;;;;;;;;;;5141061;27;20101;-69
2021/05/27 01:01:31;;;;;;;9.63;3.67;;;;;;;;;;5159568;27;20092;-70
2021/05/27 01:03:57;;;;;;;6.87;3.50;;;;;;;;;;5159746;27;20078;-68
2021/05/27 01:06:23;;;;;;;6.15;3.40;;;;;;;;;;5159572;27;20486;-68
2021/05/27 01:08:49;;;;;;;5.12;3.10;;;;;;;;;;5159504;27;20098;-68
2021/05/27 01:11:16;;;;;;;8.18;3.67;;;;;;;;;;5159383;27;20517;-68
2021/05/27 01:13:43;;;;;;;43.00;5.20;;;;;;;;;;5159652;27;20406;-69
2021/05/27 01:16:13;;;;;;;10.27;4.10;;;;;;;;;;5159652;27;20089;-68
2021/05/27 01:18:39;;;;;;;6.22;3.35;;;;;;;;;;5172235;27;20090;-69
2021/05/27 01:21:05;;;;;;;6.97;3.65;;;;;;;;;;5175153;27;20090;-68
2021/05/27 01:23:31;;;;;;;6.47;3.30;;;;;;;;;;5178249;27;20163;-68
2021/05/27 01:25:58;;;;;;;6.60;3.22;;;;;;;;;;5181978;27;20180;-68
2021/05/27 01:28:25;;;;;;;4.50;3.30;;;;;;;;;;5179771;27;20086;-68
2021/05/27 01:30:51;;;;;;;8.63;3.53;;;;;;;;;;5172589;27;20137;-69
2021/05/27 01:33:17;;;;;;;5.97;3.25;;;;;;;;;;5161875;27;20079;-68
2021/05/27 01:35:43;;;;;;;13.62;3.58;;;;;;;;;;5158997;27;20070;-69
2021/05/27 01:38:19;;;;;;;7.90;3.33;;;;;;;;;;5159846;27;20465;-69
2021/05/27 01:40:45;;;;;;;8.05;3.30;;;;;;;;;;5159576;27;20086;-69
2021/05/27 01:43:11;;;;;;;6.55;3.30;;;;;;;;;;5159952;27;20188;-69
2021/05/27 01:45:38;;;;;;;4.95;3.47;;;;;;;;;;5157709;27;20094;-69
2021/05/27 01:48:04;;;;;;;10.20;3.75;;;;;;;;;;5159524;27;20516;-69
2021/05/27 01:50:30;;;;;;;9.63;3.75;;;;;;;;;;5159277;27;20173;-68
2021/05/27 01:52:58;;;;;;;7.95;3.37;;;;;;;;;;5159318;27;20093;-69
2021/05/27 01:55:24;;;;;;;5.60;2.83;;;;;;;;;;5157643;27;20093;-69
2021/05/27 01:57:50;;;;;;;6.45;3.10;;;;;;;;;;5159325;27;20104;-69
2021/05/27 02:00:17;;;;;;;10.15;3.47;;;;;;;;;;5159302;27;20086;-69
2021/05/27 02:02:43;;;;;;;3.95;3.17;;;;;;;;;;5159655;27;20394;-68
2021/05/27 02:05:09;;;;;;;13.52;3.53;;;;;;;;;;5159310;27;20516;-69
2021/05/27 02:07:35;;;;;;;6.95;3.58;;;;;;;;;;5159130;27;20512;-69
2021/05/27 02:10:01;;;;;;;5.03;2.97;;;;;;;;;;5157578;27;20178;-69
2021/05/27 02:12:28;;;;;;;12.18;4.45;;;;;;;;;;5159042;27;20085;-69
2021/05/27 02:14:54;;;;;;;10.75;4.28;;;;;;;;;;5159193;27;20130;-69
2021/05/27 02:17:20;;;;;;;14.60;4.05;;;;;;;;;;5159038;27;20167;-69
2021/05/27 02:19:46;;;;;;;11.25;4.15;;;;;;;;;;5159106;27;20180;-68
2021/05/27 02:22:11;;;;;;;13.62;4.30;;;;;;;;;;5159176;27;20509;-69
2021/05/27 02:24:37;;;;;;;13.20;4.65;;;;;;;;;;5159214;27;20319;-69
2021/05/27 02:27:03;;;;;;;13.40;5.75;;;;;;;;;;5159251;27;20096;-71
2021/05/27 02:29:29;;;;;;;20.98;5.30;;;;;;;;;;5159004;27;20059;-71
2021/05/27 02:31:55;;;;;;;18.37;5.35;;;;;;;;;;5158986;27;20100;-71
2021/05/27 02:34:21;;;;;;;15.38;4.82;;;;;;;;;;5159101;27;20505;-69
2021/05/27 02:36:47;;;;;;;7.62;5.03;;;;;;;;;;5159041;27;20180;-69
2021/05/27 02:39:13;;;;;;;11.50;5.28;;;;;;;;;;5159783;27;20509;-68
2021/05/27 02:41:38;;;;;;;12.30;5.18;;;;;;;;;;5162270;27;20082;-71
2021/05/27 02:44:05;;;;;;;9.70;5.50;;;;;;;;;;5160874;27;20095;-71
2021/05/27 02:46:31;;;;;;;8.55;5.47;;;;;;;;;;5161047;27;20098;-73
2021/05/27 02:48:57;;;;;;;11.73;5.35;;;;;;;;;;5161766;27;20110;-67
2021/05/27 02:51:23;;;;;;;12.93;6.07;;;;;;;;;;5162091;27;20094;-67
2021/05/27 02:53:48;;;;;;;13.55;6.03;;;;;;;;;;5161296;27;20094;-67
2021/05/27 02:56:14;;;;;;;15.02;6.43;;;;;;;;;;5160755;27;20214;-68
2021/05/27 02:58:40;;;;;;;14.60;6.15;;;;;;;;;;5160517;27;20395;-68
2021/05/27 03:01:06;;;;;;;9.88;6.05;;;;;;;;;;5160625;27;20074;-68
2021/05/27 03:03:32;;;;;;;12.60;6.30;;;;;;;;;;5160404;27;20087;-67
2021/05/27 03:05:58;;;;;;;23.73;7.03;;;;;;;;;;5160363;27;20097;-67
2021/05/27 03:08:24;;;;;;;14.85;6.68;;;;;;;;;;5159683;27;20184;-68
2021/05/27 03:10:50;;;;;;;12.40;7.40;;;;;;;;;;5156326;27;20109;-68
2021/05/27 03:13:16;;;;;;;11.98;6.03;;;;;;;;;;5158164;27;20090;-68
2021/05/27 03:15:42;;;;;;;11.07;7.00;;;;;;;;;;5158665;27;20511;-68
2021/05/27 03:18:08;;;;;;;17.87;7.30;;;;;;;;;;5158451;27;20074;-67
2021/05/27 03:20:34;;;;;;;19.90;7.60;;;;;;;;;;5158810;27;20082;-67
2021/05/27 03:23:01;;;;;;;28.40;7.70;;;;;;;;;;5158153;27;20473;-67
2021/05/27 03:25:26;;;;;;;11.73;6.37;;;;;;;;;;5160004;27;20089;-65
2021/05/27 03:27:52;;;;;;;15.35;5.62;;;;;;;;;;5160140;27;20078;-67
2021/05/27 03:30:19;;;;;;;11.93;6.53;;;;;;;;;;5160174;27;20090;-67
2021/05/27 03:32:44;;;;;;;13.90;5.43;;;;;;;;;;5160025;27;20066;-67
2021/05/27 03:35:11;;;;;;;11.23;5.78;;;;;;;;;;5160200;27;20198;-67
2021/05/27 03:37:37;;;;;;;16.27;4.80;;;;;;;;;;5160255;27;20078;-67
2021/05/27 03:40:14;;;;;;;12.80;4.85;;;;;;;;;;5160141;27;20513;-67
2021/05/27 03:42:44;;;;;;;7.25;4.30;;;;;;;;;;5158715;27;20089;-67
2021/05/27 03:45:12;;;;;;;10.35;4.95;;;;;;;;;;5158491;27;20437;-67
2021/05/27 03:47:38;;;;;;;22.58;5.28;;;;;;;;;;5160176;27;20067;-67
2021/05/27 03:50:08;;;;;;;21.85;7.53;;;;;;;;;;5158679;27;20498;-67
2021/05/27 03:52:34;;;;;;;23.40;8.90;;;;;;;;;;5159962;27;20075;-67
2021/05/27 03:55:00;;;;;;;31.83;10.00;;;;;;;;;;5160488;27;20074;-66
2021/05/27 03:57:26;;;;;;;35.38;9.05;;;;;;;;;;5160051;27;20063;-67
2021/05/27 04:02:42;;;;;;;23.08;8.85;;;;;;;;;;5160318;27;20180;-67
2021/05/27 04:07:52;;;;;;;17.65;6.75;;;;;;;;;;5160115;27;20139;-67
2021/05/27 04:10:18;;;;;;;18.20;6.03;;;;;;;;;;5158676;27;20089;-68
2021/05/27 04:12:47;;;;;;;20.25;6.45;;;;;;;;;;5160115;27;20158;-68
2021/05/27 04:15:38;;;;;;;16.08;5.85;;;;;;;;;;5159894;27;20388;-67
2021/05/27 04:18:09;;;;;;;15.60;5.43;;;;;;;;;;5158406;27;20423;-68
2021/05/27 04:20:36;;;;;;;10.38;5.18;;;;;;;;;;5160352;27;20189;-68
2021/05/27 04:23:03;;;;;;;14.70;5.70;;;;;;;;;;5158156;27;20066;-67
2021/05/27 04:25:29;;;;;;;21.12;5.87;;;;;;;;;;5158230;27;20093;-67
2021/05/27 04:27:56;;;;;;;19.12;7.85;;;;;;;;;;5158516;27;20109;-67
2021/05/27 04:30:23;;;;;;;16.95;7.15;;;;;;;;;;5159305;27;20084;-67
2021/05/27 04:32:55;;;;;;;15.57;6.00;;;;;;;;;;5159697;27;20089;-67
2021/05/27 04:35:41;;;;;;;27.62;7.10;;;;;;;;;;5159155;27;20070;-67
2021/05/27 04:38:12;;;;;;;23.87;6.32;;;;;;;;;;5160698;27;20082;-69
2021/05/27 04:40:39;;;;;;;18.20;7.20;;;;;;;;;;5165230;27;20093;-66
2021/05/27 04:43:05;;;;;;;18.75;5.68;;;;;;;;;;5161261;27;20618;-69
2021/05/27 04:45:31;;;;;;;15.35;5.07;;;;;;;;;;5162462;27;20121;-66
2021/05/27 04:47:58;;;;;;;13.48;4.95;;;;;;;;;;5160266;27;20160;-68
2021/05/27 04:50:24;;;;;;;6.18;2.83;;;;;;;;;;5159513;27;20512;-68
2021/05/27 04:52:51;;;;;;;8.20;3.50;;;;;;;;;;5161275;27;20090;-67
2021/05/27 04:55:18;;;;;;;11.90;3.20;;;;;;;;;;5160341;27;20058;-68
2021/05/27 04:57:44;;;;;;;9.82;3.22;;;;;;;;;;5160869;27;20082;-67
2021/05/27 05:00:14;;;;;;;14.90;4.25;;;;;;;;;;5161964;27;20074;-69
2021/05/27 05:02:41;;;;;;;5.95;2.70;;;;;;;;;;5161021;27;20078;-69
2021/05/27 05:05:11;;;;;;;6.85;3.30;;;;;;;;;;5161975;27;20422;-68
2021/05/27 05:07:38;;;;;;;2.95;2.00;;;;;;;;;;5161543;27;20066;-69
2021/05/27 05:10:04;;;;;;;2.50;1.80;;;;;;;;;;5159200;27;20517;-68
2021/05/27 05:12:30;;;;;;;4.78;2.08;;;;;;;;;;5159529;27;20078;-68
2021/05/27 05:14:56;;;;;;;5.87;2.78;;;;;;;;;;5159396;27;20106;-68
2021/05/27 05:17:22;;;;;;;9.00;2.25;;;;;;;;;;5159092;27;20093;-68
2021/05/27 05:19:48;;;;;;;9.43;2.28;;;;;;;;;;5159449;27;20105;-67
2021/05/27 05:22:14;;;;;;;3.53;1.80;;;;;;;;;;5159095;27;20094;-67
2021/05/27 05:24:40;;;;;;;2.58;1.50;;;;;;;;;;5159356;27;20201;-66
2021/05/27 05:27:06;;;;;;;7.12;2.03;;;;;;;;;;5159265;27;20411;-66
2021/05/27 05:29:32;;;;;;;6.82;2.03;;;;;;;;;;5159200;27;20249;-65
2021/05/27 05:31:58;;;;;;;5.45;2.28;;;;;;;;;;5159082;27;20509;-69
2021/05/27 05:34:24;;;;;;;2.50;1.58;;;;;;;;;;5159191;27;20102;-66
2021/05/27 05:36:50;;;;;;;8.25;1.40;;;;;;;;;;5157320;27;20066;-67
2021/05/27 05:39:15;;;;;;;2.62;1.42;;;;;;;;;;5159318;27;20542;-66
2021/05/27 05:41:41;;;;;;;3.78;1.40;;;;;;;;;;5159247;27;20260;-66
2021/05/27 05:44:07;;;;;;;5.03;1.23;;;;;;;;;;5159233;27;20094;-68
2021/05/27 05:46:33;;;;;;;1.60;1.33;;;;;;;;;;5159391;27;20086;-68
2021/05/27 05:48:59;;;;;;;2.53;1.40;;;;;;;;;;5159212;27;20086;-67
2021/05/27 05:51:25;;;;;;;3.28;1.40;;;;;;;;;;5159249;27;20067;-67
2021/05/27 05:53:51;;;;;;;4.10;1.50;;;;;;;;;;5159139;27;20113;-67
2021/05/27 05:56:17;;;;;;;2.03;1.40;;;;;;;;;;5159181;27;20165;-67
2021/05/27 05:58:43;;;;;;;2.25;1.40;;;;;;;;;;5159094;27;20090;-67
2021/05/27 06:01:09;;;;;;;2.25;1.48;;;;;;;;;;5159662;27;20169;-66
2021/05/27 06:03:35;;;;;;;4.07;1.30;;;;;;;;;;5159436;27;20085;-67
2021/05/27 06:06:01;;;;;;;2.15;1.33;;;;;;;;;;5159771;27;20104;-67
2021/05/27 06:08:27;;;;;;;1.50;1.40;;;;;;;;;;5159785;27;20270;-66
2021/05/27 06:10:53;;;;;;;5.65;1.70;;;;;;;;;;5159326;27;20104;-67
2021/05/27 06:13:19;;;;;;;1.42;1.33;;;;;;;;;;5159019;27;20575;-67
2021/05/27 06:15:45;;;;;;;2.22;1.60;;;;;;;;;;5159135;27;20121;-66
2021/05/27 06:18:11;;;;;;;3.70;1.45;;;;;;;;;;5158911;27;20089;-67
2021/05/27 06:20:37;;;;;;;1.50;1.40;;;;;;;;;;5159142;27;20165;-67
2021/05/27 06:23:03;;;;;;;2.08;1.77;;;;;;;;;;5159579;27;20491;-70
2021/05/27 06:25:31;;;;;;;1.83;1.48;;;;;;;;;;5159740;27;20075;-69
2021/05/27 06:28:00;;;;;;;3.37;2.65;;;;;;;;;;5141049;27;20446;-70
2021/05/27 06:30:28;;;;;;;3.28;1.60;;;;;;;;;;5160076;27;20107;-70
2021/05/27 06:32:54;;;;;;;2.75;1.58;;;;;;;;;;5158416;27;20138;-69
2021/05/27 06:35:20;;;;;;;10.93;2.00;;;;;;;;;;5159746;27;20097;-68
2021/05/27 06:37:46;;;;;;;1.27;1.23;;;;;;;;;;5157686;27;20089;-69
2021/05/27 06:40:17;;;;;;;3.42;1.45;;;;;;;;;;5159484;27;20254;-70
2021/05/27 06:42:43;;;;;;;1.40;1.30;;;;;;;;;;5158955;27;20161;-69
2021/05/27 06:45:10;;;;;;;2.30;1.40;;;;;;;;;;5157414;27;20573;-69
2021/05/27 06:47:36;;;;;;;3.15;2.00;;;;;;;;;;5158818;27;20484;-67
2021/05/27 06:50:03;;;;;;;5.93;1.40;;;;;;;;;;5159073;27;20489;-68
2021/05/27 06:52:29;;;;;;;3.55;1.55;;;;;;;;;;5158793;27;20077;-68
2021/05/27 06:54:55;;;;;;;1.83;1.33;;;;;;;;;;5158958;27;20157;-68
2021/05/27 06:57:21;;;;;;;1.40;1.30;;;;;;;;;;5159052;27;20477;-68
2021/05/27 06:59:46;;;;;;;2.05;1.08;;;;;;;;;;5159236;27;20161;-68
2021/05/27 07:02:12;;;;;;;1.25;1.15;;;;;;;;;;5159703;27;20097;-67
2021/05/27 07:04:38;;;;;;;1.30;1.20;;;;;;;;;;5159230;27;20153;-67
2021/05/27 07:07:04;;;;;;;1.58;1.20;;;;;;;;;;5158695;27;20184;-68
2021/05/27 07:09:30;;;;;;;5.25;1.50;;;;;;;;;;5159996;27;20121;-67
2021/05/27 07:11:56;;;;;;;11.43;1.90;;;;;;;;;;5159093;27;20601;-68
2021/05/27 07:14:22;;;;;;;2.47;1.92;;;;;;;;;;5162079;27;20132;-68
2021/05/27 07:16:48;;;;;;;1.25;1.15;;;;;;;;;;5177254;27;20099;-67
2021/05/27 07:19:14;;;;;;;1.52;1.42;;;;;;;;;;5177618;27;20273;-68
2021/05/27 07:21:40;;;;;;;5.05;1.70;;;;;;;;;;5177425;27;20040;-68
2021/05/27 07:24:07;;;;;;;5.00;1.62;;;;;;;;;;5172748;27;20070;-69
2021/05/27 07:26:32;;;;;;;1.05;1.05;;;;;;;;;;5159490;27;20066;-68
2021/05/27 07:28:59;;;;;;;1.90;1.42;;;;;;;;;;5160741;27;20493;-68
2021/05/27 07:31:24;;;;;;;1.30;1.20;;;;;;;;;;5160325;27;20185;-68
2021/05/27 07:33:50;;;;;;;3.95;1.73;;;;;;;;;;5158738;27;20118;-69
2021/05/27 07:36:16;;;;;;;6.05;1.73;;;;;;;;;;5160868;27;20090;-69
2021/05/27 07:38:43;;;;;;;2.33;1.45;;;;;;;;;;5160457;27;20504;-69
2021/05/27 07:41:09;;;;;;;4.28;1.40;;;;;;;;;;5160229;27;20079;-69
2021/05/27 07:43:35;;;;;;;1.10;1.00;;;;;;;;;;5158245;27;20434;-69
2021/05/27 07:46:01;;;;;;;4.80;1.20;;;;;;;;;;5159978;27;20074;-69
2021/05/27 07:48:27;;;;;;;3.97;1.30;;;;;;;;;;5160031;27;20156;-68
2021/05/27 07:50:53;;;;;;;1.37;1.10;;;;;;;;;;5160441;27;20509;-69
2021/05/27 07:53:23;;;;;;;11.90;2.65;;;;;;;;;;5159881;27;20101;-69
2021/05/27 07:55:49;;;;;;;4.82;1.40;;;;;;;;;;5160191;27;20089;-69
2021/05/27 07:58:14;;;;;;;2.03;1.20;;;;;;;;;;5160286;27;20071;-68
2021/05/27 08:00:41;;;;;;;3.45;1.30;;;;;;;;;;5159970;27;20103;-69
2021/05/27 08:03:07;;;;;;;1.40;1.30;;;;;;;;;;5159981;27;20063;-69
2021/05/27 08:05:34;;;;;;;3.65;1.30;;;;;;;;;;5159887;27;20076;-69
2021/05/27 08:08:01;;;;;;;3.75;1.40;;;;;;;;;;5159733;27;20090;-69
2021/05/27 08:10:26;;;;;;;1.37;0.90;;;;;;;;;;5159776;27;20094;-69
2021/05/27 08:12:52;;;;;;;3.95;1.45;;;;;;;;;;5159827;27;20095;-69
2021/05/27 08:15:18;;;;;;;3.12;1.30;;;;;;;;;;5159844;27;20101;-69
2021/05/27 08:17:44;;;;;;;2.42;1.50;;;;;;;;;;5159833;27;20102;-69
2021/05/27 08:20:10;;;;;;;1.50;1.40;;;;;;;;;;5159786;27;20193;-69
2021/05/27 08:22:36;;;;;;;1.50;1.40;;;;;;;;;;5159768;27;20109;-69
2021/05/27 08:25:03;;;;;;;1.58;1.30;;;;;;;;;;5159733;27;20066;-69
2021/05/27 08:27:30;;;;;;;2.08;1.40;;;;;;;;;;5159789;27;20117;-68
2021/05/27 08:29:57;;;;;;;1.20;1.10;;;;;;;;;;5158068;27;20071;-68
2021/05/27 08:32:22;;;;;;;3.58;1.25;;;;;;;;;;5159574;27;20474;-68
2021/05/27 08:34:48;;;;;;;1.05;1.00;;;;;;;;;;5159619;27;20069;-69
2021/05/27 08:37:14;;;;;;;1.25;1.20;;;;;;;;;;5159666;27;20086;-69
2021/05/27 08:39:40;;;;;;;1.33;1.20;;;;;;;;;;5159808;27;20102;-70
2021/05/27 08:42:06;;;;;;;1.10;1.08;;;;;;;;;;5159431;27;20192;-70
2021/05/27 08:44:40;;;;;;;4.43;1.30;;;;;;;;;;5159690;27;20102;-70
2021/05/27 08:47:06;;;;;;;1.42;1.27;;;;;;;;;;5159375;27;20086;-69
2021/05/27 08:49:34;;;;;;;1.42;1.33;;;;;;;;;;5159478;27;20098;-69
2021/05/27 08:52:00;;;;;;;1.67;1.10;;;;;;;;;;5157782;27;20082;-69
2021/05/27 08:54:26;;;;;;;1.62;1.33;;;;;;;;;;5140695;27;20073;-69
2021/05/27 08:56:52;;;;;;;1.35;1.10;;;;;;;;;;5159417;27;20090;-69
2021/05/27 08:59:17;;;;;;;1.20;1.10;;;;;;;;;;5159641;27;20111;-69
2021/05/27 09:01:59;;;;;;;0.98;0.98;;;;;;;;;;5175029;27;20500;-70
2021/05/27 09:04:25;;;;;;;1.48;1.00;;;;;;;;;;5159532;27;20161;-69
2021/05/27 09:06:51;;;;;;;1.20;1.10;;;;;;;;;;5157898;27;20098;-70
2021/05/27 09:09:17;;;;;;;3.87;1.30;;;;;;;;;;5159738;27;20091;-69
2021/05/27 09:11:46;;;;;;;1.45;1.17;;;;;;;;;;5159523;27;20062;-70
2021/05/27 09:14:12;;;;;;;8.35;1.42;;;;;;;;;;5159408;27;20089;-68
2021/05/27 09:16:54;;;;;;;3.83;1.30;;;;;;;;;;5159138;27;20179;-69
2021/05/27 09:19:20;;;;;;;3.03;1.27;;;;;;;;;;5159289;27;20094;-69
2021/05/27 09:21:46;;;;;;;3.42;1.02;;;;;;;;;;5159556;27;20089;-68
2021/05/27 09:24:12;;;;;;;1.10;1.00;;;;;;;;;;5159299;27;20100;-69
2021/05/27 09:26:55;;;;;;;3.05;2.25;;;;;;;;;;5157640;27;20090;-69
2021/05/27 09:29:22;;;;;;;3.10;1.37;;;;;;;;;;5159439;27;20097;-69
2021/05/27 09:32:02;;;;;;;4.15;1.30;;;;;;;;;;5159449;27;20165;-70
2021/05/27 09:34:45;;;;;;;1.27;1.10;;;;;;;;;;5159456;27;20297;-69
2021/05/27 09:37:31;;;;;;;1.10;1.10;;;;;;;;;;5157607;27;20078;-69
2021/05/27 09:39:58;;;;;;;1.12;1.10;;;;;;;;;;5160261;27;20186;-70
2021/05/27 09:42:25;;;;;;;1.60;1.20;;;;;;;;;;5159122;27;20179;-70
2021/05/27 09:44:51;;;;;;;1.23;1.08;;;;;;;;;;5159716;27;20414;-70
2021/05/27 09:47:33;;;;;;;2.15;1.30;;;;;;;;;;5157904;27;20079;-70
2021/05/27 09:50:00;;;;;;;1.42;1.30;;;;;;;;;;5159117;27;20066;-69
2021/05/27 09:52:36;;;;;;;3.12;1.12;;;;;;;;;;5157925;27;20534;-69
2021/05/27 09:55:02;;;;;;;1.30;1.20;;;;;;;;;;5157960;27;20540;-68
2021/05/27 09:57:28;;;;;;;1.37;1.27;;;;;;;;;;5157743;27;20078;-71
2021/05/27 09:59:55;;;;;;;1.42;1.30;;;;;;;;;;5159377;27;20101;-70
2021/05/27 10:02:21;;;;;;;4.43;1.00;;;;;;;;;;5157375;27;20100;-71
2021/05/27 10:04:57;;;;;;;1.90;1.30;;;;;;;;;;5157849;27;20073;-71
2021/05/27 10:07:40;;;;;;;2.87;1.30;;;;;;;;;;5158963;27;20066;-70
2021/05/27 10:10:08;;;;;;;1.40;1.30;;;;;;;;;;5157415;27;20505;-70
2021/05/27 10:12:44;;;;;;;1.23;1.12;;;;;;;;;;5158862;27;20126;-70
2021/05/27 10:15:15;;;;;;;1.17;1.10;;;;;;;;;;5159056;27;20069;-71
2021/05/27 10:17:42;;;;;;;3.40;1.08;;;;;;;;;;5159414;27;20398;-70
2021/05/27 10:20:12;;;;;;;1.75;1.30;;;;;;;;;;5159075;27;20398;-70
2021/05/27 10:22:38;;;;;;;1.20;1.10;;;;;;;;;;5159387;27;20087;-69
2021/05/27 10:25:08;;;;;;;0.95;0.95;;;;;;;;;;5158992;27;20509;-69
2021/05/27 10:27:34;;;;;;;1.00;1.00;;;;;;;;;;5157452;27;20096;-69
2021/05/27 10:30:01;;;;;;;1.12;1.12;;;;;;;;;;5158725;27;20422;-69
2021/05/27 10:32:28;;;;;;;1.73;1.35;;;;;;;;;;5156899;27;20078;-69
2021/05/27 10:34:55;;;;;;;1.95;1.20;;;;;;;;;;5157317;27;20503;-70
2021/05/27 10:37:33;;;;;;;3.42;1.67;;;;;;;;;;5158845;27;20093;-69
2021/05/27 10:40:03;;;;;;;3.78;1.30;;;;;;;;;;5159516;27;20095;-69
2021/05/27 10:43:14;;;;;;;2.50;1.20;;;;;;;;;;5159070;27;20474;-69
2021/05/27 10:46:00;;;;;;;1.10;1.10;;;;;;;;;;5159139;27;20669;-70
2021/05/27 10:48:31;;;;;;;1.80;1.70;;;;;;;;;;5158723;27;20524;-70
2021/05/27 10:51:06;;;;;;;1.45;1.20;;;;;;;;;;5159821;27;20086;-70
2021/05/27 10:53:39;;;;;;;2.03;1.70;;;;;;;;;;5163585;27;20429;-69
2021/05/27 10:56:06;;;;;;;2.78;1.30;;;;;;;;;;5159477;27;20154;-68
2021/05/27 10:58:53;;;;;;;1.23;1.17;;;;;;;;;;5159012;27;20165;-69
2021/05/27 11:01:28;;;;;;;1.73;1.23;;;;;;;;;;5159247;27;20082;-69
2021/05/27 11:03:56;;;;;;;1.27;1.17;;;;;;;;;;5160317;27;20090;-69
2021/05/27 11:06:33;;;;;;;2.00;1.30;;;;;;;;;;5160451;27;20086;-69
2021/05/27 11:11:41;;;;;;;1.23;1.12;;;;;;;;;;5160547;27;20108;-70
2021/05/27 11:14:25;;;;;;;1.20;1.10;;;;;;;;;;5160362;27;20094;-69
2021/05/27 11:25:16;;;;;;;2.87;1.35;;;;;;;;;;5161784;27;20070;-70
2021/05/27 11:28:00;;;;;;;3.70;1.25;;;;;;;;;;5160441;27;20161;-69
2021/05/27 11:30:27;;;;;;;1.12;1.02;;;;;;;;;;5160207;27;20097;-69
2021/05/27 11:33:06;;;;;;;2.00;1.10;;;;;;;;;;5160078;27;20086;-69
2021/05/27 11:35:38;;;;;;;2.05;0.90;;;;;;;;;;5160314;27;20180;-67
2021/05/27 11:38:08;;;;;;;2.28;1.10;;;;;;;;;;5160384;27;20051;-69
2021/05/27 11:40:36;;;;;;;1.10;1.00;;;;;;;;;;5160215;27;20062;-70
2021/05/27 11:43:02;;;;;;;1.30;1.20;;;;;;;;;;5160963;27;20071;-69
2021/05/27 11:45:37;;;;;;;2.35;1.20;;;;;;;;;;5158764;27;20413;-70
2021/05/27 11:48:26;;;;;;;1.23;1.15;;;;;;;;;;5159212;27;20157;-70
2021/05/27 11:51:02;;;;;;;1.30;1.20;;;;;;;;;;5160293;27;20082;-70
2021/05/27 11:53:41;;;;;;;1.08;1.00;;;;;;;;;;5160337;27;20093;-67
2021/05/27 11:56:11;;;;;;;3.72;1.20;;;;;;;;;;5160758;27;20079;-68
2021/05/27 11:58:38;;;;;;;1.40;1.30;;;;;;;;;;5160695;27;20086;-69
2021/05/27 12:01:18;;;;;;;2.28;1.50;;;;;;;;;;5160639;27;20101;-68
2021/05/27 12:04:20;;;;;;;1.25;1.00;;;;;;;;;;5142193;27;20097;-68
2021/05/27 12:06:54;;;;;;;1.27;1.10;;;;;;;;;;5077708;28;20147;-69
2021/05/27 12:09:49;;;;;;;2.05;1.10;;;;;;;;;;5148624;27;20085;-69
2021/05/27 12:12:24;;;;;;;1.58;1.17;;;;;;;;;;5163659;27;20122;-69
2021/05/27 12:14:58;;;;;;;1.20;1.20;;;;;;;;;;5161579;27;20506;-70
2021/05/27 12:17:27;;;;;;;1.10;1.10;;;;;;;;;;5161899;27;20137;-70
2021/05/27 12:20:08;;;;;;;2.78;1.00;;;;;;;;;;5160731;27;20078;-69
2021/05/27 12:22:46;;;;;;;1.00;1.00;;;;;;;;;;5163492;27;20085;-70
2021/05/27 12:25:12;;;;;;;0.88;0.88;;;;;;;;;;5161079;27;20065;-69
2021/05/27 12:27:49;;;;;;;2.75;1.00;;;;;;;;;;5160416;27;20482;-67
2021/05/27 12:30:37;;;;;;;4.53;1.25;;;;;;;;;;5160123;27;20395;-68
2021/05/27 12:33:05;;;;;;;1.15;1.05;;;;;;;;;;5159625;27;20074;-66
2021/05/27 12:35:35;;;;;;;1.70;1.23;;;;;;;;;;5158449;27;20110;-68
2021/05/27 12:38:03;;;;;;;9.15;1.58;;;;;;;;;;5159628;27;20473;-66
2021/05/27 12:40:35;;;;;;;1.15;1.00;;;;;;;;;;5160664;27;20090;-68
2021/05/27 12:43:18;;;;;;;4.53;2.28;;;;;;;;;;5160506;27;20075;-67
2021/05/27 12:45:48;;;;;;;3.30;1.30;;;;;;;;;;5160443;27;20081;-68
2021/05/27 12:48:20;;;;;;;1.27;1.10;;;;;;;;;;5159717;27;20083;-67
2021/05/27 12:51:00;;;;;;;2.35;1.62;;;;;;;;;;5159643;27;20102;-65
2021/05/27 12:53:50;;;;;;;1.20;1.10;;;;;;;;;;5160148;27;20081;-68
2021/05/27 12:56:24;;;;;;;3.00;1.75;;;;;;;;;;5163626;27;20082;-66
2021/05/27 12:58:54;;;;;;;3.83;1.10;;;;;;;;;;5159923;27;20086;-67
2021/05/27 13:01:39;;;;;;;3.20;1.20;;;;;;;;;;5159492;27;20081;-69
2021/05/27 13:04:28;;;;;;;2.60;1.30;;;;;;;;;;5159939;27;20065;-69
2021/05/27 13:07:03;;;;;;;1.80;1.20;;;;;;;;;;5159612;27;20176;-69
2021/05/27 13:09:29;;;;;;;1.42;1.20;;;;;;;;;;5158462;27;20149;-68
2021/05/27 13:11:59;;;;;;;1.00;1.00;;;;;;;;;;5157471;27;20104;-69
2021/05/27 13:14:25;;;;;;;1.58;1.10;;;;;;;;;;5157819;27;20106;-69
2021/05/27 13:16:52;;;;;;;1.65;1.00;;;;;;;;;;5159558;27;20090;-69
2021/05/27 13:19:27;;;;;;;4.62;1.42;;;;;;;;;;5159780;27;20482;-70
2021/05/27 13:22:03;;;;;;;1.00;1.00;;;;;;;;;;5160124;27;20074;-68
2021/05/27 13:24:31;;;;;;;16.73;4.25;;;;;;;;;;5163840;27;20079;-70
2021/05/27 13:30:14;;;;;;;1.70;1.20;;;;;;;;;;5176490;27;20055;-71
2021/05/27 13:32:42;;;;;;;4.40;1.08;;;;;;;;;;5177580;27;20118;-70
2021/05/27 13:35:10;;;;;;;3.22;1.15;;;;;;;;;;5167383;27;20082;-68
2021/05/27 13:37:39;;;;;;;1.25;1.15;;;;;;;;;;5163229;27;20094;-69
2021/05/27 13:40:13;;;;;;;2.83;1.10;;;;;;;;;;5169187;27;20168;-70
2021/05/27 13:42:40;;;;;;;3.40;1.20;;;;;;;;;;5162428;27;20069;-71
2021/05/27 13:45:10;;;;;;;1.37;1.05;;;;;;;;;;5163234;27;20100;-68
2021/05/27 13:47:49;;;;;;;;;;;;;;;;;;;;;
2021/05/27 13:50:37;;;;;;;1.10;1.10;;;;;;;;;;5165481;27;20105;-69
2021/05/27 13:53:05;;;;;;;1.00;0.98;;;;;;;;;;5161613;27;20401;-72
2021/05/27 13:55:32;;;;;;;4.55;1.83;;;;;;;;;;5157958;27;20090;-70
2021/05/27 13:58:01;;;;;;;2.30;1.25;;;;;;;;;;5159470;27;20086;-68
2021/05/27 14:00:27;;;;;;;3.20;1.30;;;;;;;;;;5157807;27;20083;-69
2021/05/27 14:02:53;;;;;;;1.50;1.12;;;;;;;;;;5158970;27;20090;-68
2021/05/27 14:05:19;;;;;;;2.55;1.45;;;;;;;;;;5159317;27;20102;-68
2021/05/27 14:07:49;;;;;;;1.30;1.20;;;;;;;;;;5159354;27;20063;-69
2021/05/27 14:10:15;;;;;;;1.92;1.17;;;;;;;;;;5159148;27;20478;-70
2021/05/27 14:12:42;;;;;;;1.73;1.20;;;;;;;;;;5159086;27;20081;-68
2021/05/27 14:15:09;;;;;;;1.10;1.00;;;;;;;;;;5159588;27;20078;-69
2021/05/27 14:17:37;;;;;;;1.65;1.20;;;;;;;;;;5159263;27;20485;-71
2021/05/27 14:20:05;;;;;;;1.02;1.02;;;;;;;;;;5158425;27;20066;-69
2021/05/27 14:22:31;;;;;;;1.40;1.30;;;;;;;;;;5159675;27;20101;-69
2021/05/27 14:24:57;;;;;;;2.95;1.20;;;;;;;;;;5159209;27;20426;-68
2021/05/27 14:27:22;;;;;;;5.18;1.80;;;;;;;;;;5158980;27;20098;-69
2021/05/27 14:29:50;;;;;;;1.60;1.17;;;;;;;;;;5159309;27;20096;-66
2021/05/27 14:32:16;;;;;;;2.28;1.10;;;;;;;;;;5159423;27;20154;-70
2021/05/27 14:34:42;;;;;;;1.87;1.30;;;;;;;;;;5160014;27;20085;-70
2021/05/27 14:37:08;;;;;;;1.52;1.17;;;;;;;;;;5160264;27;20101;-67
2021/05/27 14:39:34;;;;;;;2.62;1.35;;;;;;;;;;5159769;27;20105;-70
2021/05/27 14:42:00;;;;;;;3.42;1.17;;;;;;;;;;5161260;27;20089;-67
2021/05/27 14:44:26;;;;;;;2.62;1.33;;;;;;;;;;5163171;27;20490;-71
2021/05/27 14:46:52;;;;;;;3.58;1.25;;;;;;;;;;5162119;27;20101;-68
2021/05/27 14:49:18;;;;;;;1.15;1.00;;;;;;;;;;5161892;27;20082;-71
2021/05/27 14:51:44;;;;;;;4.53;1.20;;;;;;;;;;5162417;27;20191;-70
2021/05/27 14:54:11;;;;;;;1.62;1.27;;;;;;;;;;5161563;27;20296;-71
2021/05/27 14:56:37;;;;;;;1.20;1.10;;;;;;;;;;5161331;27;20088;-68
2021/05/27 14:59:03;;;;;;;2.47;1.10;;;;;;;;;;5159881;27;20101;-68
2021/05/27 15:01:29;;;;;;;2.80;1.25;;;;;;;;;;5161507;27;20200;-69
2021/05/27 15:03:55;;;;;;;4.68;1.27;;;;;;;;;;5162105;27;20449;-68
2021/05/27 15:06:21;;;;;;;1.40;1.30;;;;;;;;;;5162181;27;20094;-71
2021/05/27 15:08:47;;;;;;;2.08;1.40;;;;;;;;;;5162699;27;20512;-72
2021/05/27 15:11:13;;;;;;;1.80;1.27;;;;;;;;;;5162328;27;20091;-69
2021/05/27 15:13:39;;;;;;;1.30;1.20;;;;;;;;;;5162835;27;20509;-69
2021/05/27 15:16:05;;;;;;;1.10;1.10;;;;;;;;;;5163013;27;20109;-69
2021/05/27 15:18:35;;;;;;;1.05;1.05;;;;;;;;;;5162354;27;20078;-69
2021/05/27 15:21:01;;;;;;;1.02;1.02;;;;;;;;;;5162804;27;20199;-72
2021/05/27 15:23:27;;;;;;;1.00;1.00;;;;;;;;;;5161641;27;20098;-72
2021/05/27 15:25:53;;;;;;;4.93;1.60;;;;;;;;;;5161156;27;20080;-68
2021/05/27 15:28:19;;;;;;;3.90;1.12;;;;;;;;;;5161073;27;20489;-70
2021/05/27 15:30:45;;;;;;;6.07;1.92;;;;;;;;;;5159702;27;20110;-69
2021/05/27 15:33:11;;;;;;;1.67;1.23;;;;;;;;;;5159724;27;20093;-69
2021/05/27 15:35:37;;;;;;;1.23;1.08;;;;;;;;;;5161419;27;20292;-70